Time;durP1;ratioP1;P1;durP2;ratioP2;P2;SDS_P1;SDS_P2;PMS_P1;PMS_P2;Temp;Humidity;BMP_temperature;BMP_pressure;BME280_temperature;BME280_humidity;BME280_pressure;Samples;Min_cycle;Max_cycle;Signal;HPM_P1;HPM_P2
2023/06/26 00:02:25;;;;;;;13.80;9.55;;;;;;;;;;4988091;28;98589;-77
2023/06/26 00:04:54;;;;;;;13.88;8.68;;;;;;;;;;4968647;28;103719;-78
2023/06/26 00:07:21;;;;;;;13.93;8.25;;;;;;;;;;4991881;28;97790;-76
2023/06/26 00:09:47;;;;;;;12.98;8.30;;;;;;;;;;4971347;28;98584;-77
2023/06/26 00:12:14;;;;;;;13.55;8.77;;;;;;;;;;4964822;28;99658;-77
2023/06/26 00:14:40;;;;;;;13.48;9.85;;;;;;;;;;4968628;28;99763;-78
2023/06/26 00:17:07;;;;;;;13.15;8.68;;;;;;;;;;4977843;28;99918;-77
2023/06/26 00:19:33;;;;;;;14.93;8.70;;;;;;;;;;4975777;28;99139;-78
2023/06/26 00:22:01;;;;;;;;;;;;;;;;;;4973074;28;99017;-79
2023/06/26 00:24:27;;;;;;;12.30;8.35;;;;;;;;;;4990329;28;105057;-79
2023/06/26 00:26:54;;;;;;;12.93;8.77;;;;;;;;;;4984542;28;98593;-79
2023/06/26 00:29:21;;;;;;;12.07;7.40;;;;;;;;;;4983600;28;98938;-78
2023/06/26 00:31:48;;;;;;;15.10;7.78;;;;;;;;;;4984178;28;98791;-79
2023/06/26 00:34:15;;;;;;;12.57;7.78;;;;;;;;;;4982485;28;98879;-81
2023/06/26 00:36:43;;;;;;;10.38;6.93;;;;;;;;;;4984750;28;101612;-79
2023/06/26 00:39:10;;;;;;;10.93;7.22;;;;;;;;;;4984387;28;100775;-77
2023/06/26 00:41:37;;;;;;;12.10;7.63;;;;;;;;;;4986949;28;98946;-78
2023/06/26 00:44:04;;;;;;;11.93;7.97;;;;;;;;;;4969389;28;100002;-80
2023/06/26 00:46:30;;;;;;;;;;;;;;;;;;4991024;28;99229;-78
2023/06/26 00:48:58;;;;;;;12.40;7.05;;;;;;;;;;4987623;28;101520;-80
2023/06/26 00:51:26;;;;;;;10.57;7.07;;;;;;;;;;4985465;28;99160;-79
2023/06/26 00:53:52;;;;;;;;;;;;;;;;;;4986371;28;98971;-78
2023/06/26 00:56:19;;;;;;;12.73;7.72;;;;;;;;;;4987776;28;115405;-78
2023/06/26 00:58:46;;;;;;;13.13;8.18;;;;;;;;;;4987092;28;98899;-79
2023/06/26 01:01:17;;;;;;;12.00;7.85;;;;;;;;;;4985719;28;99117;-78
2023/06/26 01:03:45;;;;;;;13.30;7.88;;;;;;;;;;4985705;28;104588;-83
2023/06/26 01:06:12;;;;;;;13.65;7.63;;;;;;;;;;4985107;28;102105;-80
2023/06/26 01:08:40;;;;;;;13.52;8.43;;;;;;;;;;4990379;28;98988;-84
2023/06/26 01:11:07;;;;;;;12.00;8.00;;;;;;;;;;4981142;28;99627;-85
2023/06/26 01:13:35;;;;;;;12.93;7.70;;;;;;;;;;4980932;28;98826;-79
2023/06/26 01:16:01;;;;;;;11.48;7.50;;;;;;;;;;4986878;28;98762;-77
2023/06/26 01:18:29;;;;;;;11.82;7.30;;;;;;;;;;4986920;28;100540;-79
2023/06/26 01:21:00;;;;;;;13.57;7.28;;;;;;;;;;4974946;28;97970;-79
2023/06/26 01:23:36;;;;;;;11.57;7.05;;;;;;;;;;4994779;28;99528;-80
2023/06/26 01:26:15;;;;;;;12.63;6.68;;;;;;;;;;4985366;28;100534;-78
2023/06/26 01:28:42;;;;;;;11.15;6.57;;;;;;;;;;4978622;28;99396;-79
2023/06/26 01:31:10;;;;;;;11.38;6.88;;;;;;;;;;4988351;28;102109;-78
2023/06/26 01:33:37;;;;;;;10.35;6.10;;;;;;;;;;4984275;28;99119;-79
2023/06/26 01:36:04;;;;;;;10.73;6.30;;;;;;;;;;4987311;28;98896;-80
2023/06/26 01:38:31;;;;;;;11.10;6.00;;;;;;;;;;4989976;28;99462;-78
2023/06/26 01:40:58;;;;;;;9.20;5.25;;;;;;;;;;4974310;28;99233;-79
2023/06/26 01:43:25;;;;;;;;;;;;;;;;;;4982362;28;99322;-77
2023/06/26 01:45:53;;;;;;;9.32;5.30;;;;;;;;;;4987214;28;120909;-77
2023/06/26 01:48:22;;;;;;;8.63;4.70;;;;;;;;;;4987155;28;98961;-77
2023/06/26 01:50:50;;;;;;;10.32;5.22;;;;;;;;;;4989513;28;99013;-79
2023/06/26 01:53:19;;;;;;;8.63;4.70;;;;;;;;;;4988729;28;100069;-78
2023/06/26 01:55:50;;;;;;;9.02;4.95;;;;;;;;;;4985879;28;102577;-79
2023/06/26 01:58:17;;;;;;;9.93;4.85;;;;;;;;;;4986138;28;99144;-76
2023/06/26 02:00:45;;;;;;;9.50;4.30;;;;;;;;;;4985100;28;99008;-79
2023/06/26 02:03:11;;;;;;;8.98;4.50;;;;;;;;;;4986336;28;100952;-80
2023/06/26 02:05:38;;;;;;;9.18;4.30;;;;;;;;;;4983971;28;101602;-78
2023/06/26 02:08:06;;;;;;;11.05;4.20;;;;;;;;;;4988486;28;98933;-79
2023/06/26 02:10:34;;;;;;;10.38;4.30;;;;;;;;;;4989811;28;99475;-79
2023/06/26 02:13:01;;;;;;;9.38;4.30;;;;;;;;;;4977129;28;101643;-78
2023/06/26 02:15:27;;;;;;;9.20;4.43;;;;;;;;;;4960254;28;101789;-77
2023/06/26 02:17:54;;;;;;;12.18;3.95;;;;;;;;;;4985311;28;101974;-78
2023/06/26 02:20:21;;;;;;;9.85;4.00;;;;;;;;;;4984820;28;98563;-77
2023/06/26 02:22:47;;;;;;;12.10;4.40;;;;;;;;;;4986735;28;100243;-76
2023/06/26 02:25:14;;;;;;;8.23;3.83;;;;;;;;;;4980907;28;100253;-76
2023/06/26 02:27:42;;;;;;;9.38;3.83;;;;;;;;;;4985462;28;98636;-80
2023/06/26 02:30:09;;;;;;;9.48;4.10;;;;;;;;;;4985911;28;99247;-78
2023/06/26 02:32:35;;;;;;;11.63;4.38;;;;;;;;;;4985776;28;100108;-78
2023/06/26 02:35:02;;;;;;;11.25;3.92;;;;;;;;;;4974893;28;98506;-78
2023/06/26 02:37:29;;;;;;;10.15;4.00;;;;;;;;;;4984806;28;100673;-78
2023/06/26 02:39:55;;;;;;;10.20;4.10;;;;;;;;;;4983941;28;98733;-78
2023/06/26 02:42:22;;;;;;;11.57;4.10;;;;;;;;;;4984291;28;102392;-78
2023/06/26 02:44:48;;;;;;;9.80;4.10;;;;;;;;;;4983489;28;102219;-78
2023/06/26 02:47:15;;;;;;;9.13;3.63;;;;;;;;;;5003087;28;98657;-78
2023/06/26 02:49:43;;;;;;;10.80;4.07;;;;;;;;;;4986643;28;106464;-78
2023/06/26 02:52:10;;;;;;;10.30;4.05;;;;;;;;;;4984882;28;100352;-78
2023/06/26 02:54:36;;;;;;;11.15;4.03;;;;;;;;;;4985706;28;98754;-78
2023/06/26 02:57:04;;;;;;;10.38;3.75;;;;;;;;;;4955205;28;101422;-76
2023/06/26 02:59:32;;;;;;;12.75;4.28;;;;;;;;;;4985642;28;104060;-78
2023/06/26 03:01:58;;;;;;;11.13;3.58;;;;;;;;;;4983478;28;100999;-77
2023/06/26 03:04:31;;;;;;;11.48;4.15;;;;;;;;;;4983228;28;101602;-79
2023/06/26 03:06:59;;;;;;;12.10;4.05;;;;;;;;;;4983710;28;99577;-78
2023/06/26 03:09:26;;;;;;;12.50;4.05;;;;;;;;;;4963298;28;102345;-77
2023/06/26 03:11:52;;;;;;;10.25;3.53;;;;;;;;;;4958563;28;101627;-78
2023/06/26 03:14:20;;;;;;;9.02;3.60;;;;;;;;;;4983980;28;99067;-78
2023/06/26 03:16:46;;;;;;;10.07;3.88;;;;;;;;;;4985231;28;98828;-78
2023/06/26 03:19:13;;;;;;;11.60;3.95;;;;;;;;;;4986485;28;101814;-78
2023/06/26 03:22:06;;;;;;;13.70;4.38;;;;;;;;;;4959618;28;103304;-78
2023/06/26 03:24:33;;;;;;;14.35;4.05;;;;;;;;;;4991041;28;100724;-77
2023/06/26 03:27:00;;;;;;;;;;;;;;;;;;4976575;28;99087;-78
2023/06/26 03:29:26;;;;;;;11.13;4.05;;;;;;;;;;4984309;28;100911;-76
2023/06/26 03:31:53;;;;;;;12.88;4.13;;;;;;;;;;4983200;28;103006;-78
2023/06/26 03:34:21;;;;;;;12.50;4.13;;;;;;;;;;4980590;28;98726;-78
2023/06/26 03:36:47;;;;;;;13.52;3.90;;;;;;;;;;4966924;28;101994;-76
2023/06/26 03:39:14;;;;;;;14.27;4.45;;;;;;;;;;4982843;28;100246;-78
2023/06/26 03:41:41;;;;;;;11.32;4.18;;;;;;;;;;4985696;28;98913;-77
2023/06/26 03:44:07;;;;;;;13.27;4.22;;;;;;;;;;4966256;28;101919;-76
2023/06/26 03:46:41;;;;;;;12.55;4.07;;;;;;;;;;4983035;28;99127;-77
2023/06/26 03:49:08;;;;;;;15.40;4.10;;;;;;;;;;4979610;28;100786;-79
2023/06/26 03:51:37;;;;;;;12.38;4.13;;;;;;;;;;4996614;28;101931;-76
2023/06/26 03:54:04;;;;;;;12.70;4.40;;;;;;;;;;4987100;28;99118;-76
2023/06/26 03:56:30;;;;;;;15.30;3.63;;;;;;;;;;4972711;28;101544;-76
2023/06/26 03:58:57;;;;;;;13.30;3.65;;;;;;;;;;4982498;28;105897;-76
2023/06/26 04:01:25;;;;;;;10.32;3.92;;;;;;;;;;4985487;28;98588;-76
2023/06/26 04:03:52;;;;;;;12.90;4.35;;;;;;;;;;4984277;28;99198;-77
2023/06/26 04:06:18;;;;;;;13.90;4.40;;;;;;;;;;4982571;28;98515;-76
2023/06/26 04:08:45;;;;;;;14.25;4.15;;;;;;;;;;4991825;28;101663;-78
2023/06/26 04:11:12;;;;;;;10.43;3.55;;;;;;;;;;4982632;28;101811;-78
2023/06/26 04:13:38;;;;;;;11.02;4.60;;;;;;;;;;4975268;28;97816;-77
2023/06/26 04:16:06;;;;;;;8.70;3.55;;;;;;;;;;4983341;28;101209;-77
2023/06/26 04:18:33;;;;;;;13.15;4.35;;;;;;;;;;4985901;28;100933;-78
2023/06/26 04:21:11;;;;;;;10.70;3.40;;;;;;;;;;4971568;28;99255;-77
2023/06/26 04:23:38;;;;;;;10.55;3.75;;;;;;;;;;4989570;28;100084;-78
2023/06/26 04:26:05;;;;;;;10.85;3.45;;;;;;;;;;4976473;28;98839;-77
2023/06/26 04:28:32;;;;;;;11.40;3.63;;;;;;;;;;4967651;28;100768;-78
2023/06/26 04:30:59;;;;;;;13.02;3.90;;;;;;;;;;4967314;28;99558;-78
2023/06/26 04:33:26;;;;;;;12.57;3.50;;;;;;;;;;4981252;28;98739;-76
2023/06/26 04:35:52;;;;;;;;;;;;;;;;;;4968664;28;98885;-77
2023/06/26 04:38:19;;;;;;;9.82;3.55;;;;;;;;;;4982658;28;107237;-76
2023/06/26 04:40:46;;;;;;;10.32;3.40;;;;;;;;;;4975898;28;98568;-76
2023/06/26 04:43:12;;;;;;;9.43;3.40;;;;;;;;;;4993431;28;99468;-77
2023/06/26 04:45:39;;;;;;;11.18;3.50;;;;;;;;;;4984061;28;101096;-77
2023/06/26 04:48:05;;;;;;;9.88;3.80;;;;;;;;;;4990115;28;100730;-78
2023/06/26 04:50:33;;;;;;;10.60;3.53;;;;;;;;;;4988564;28;99236;-79
2023/06/26 04:52:59;;;;;;;9.30;3.47;;;;;;;;;;4988378;28;98804;-78
2023/06/26 04:55:26;;;;;;;9.13;3.65;;;;;;;;;;4979484;28;99006;-77
2023/06/26 04:57:53;;;;;;;9.88;3.35;;;;;;;;;;4972250;28;99141;-77
2023/06/26 05:00:19;;;;;;;11.20;3.70;;;;;;;;;;4989760;28;98533;-79
2023/06/26 05:02:46;;;;;;;11.32;3.65;;;;;;;;;;4977419;28;99319;-77
2023/06/26 05:05:13;;;;;;;11.38;3.53;;;;;;;;;;4988731;28;101232;-77
2023/06/26 05:07:41;;;;;;;10.85;3.50;;;;;;;;;;4975988;28;98612;-75
2023/06/26 05:10:08;;;;;;;10.63;3.58;;;;;;;;;;4987009;28;99895;-77
2023/06/26 05:12:34;;;;;;;10.93;3.40;;;;;;;;;;4973354;28;98853;-77
2023/06/26 05:15:01;;;;;;;9.18;3.45;;;;;;;;;;4968105;28;98816;-77
2023/06/26 05:17:27;;;;;;;10.27;3.10;;;;;;;;;;4982178;28;99142;-77
2023/06/26 05:19:54;;;;;;;9.45;3.42;;;;;;;;;;4989030;28;98753;-78
2023/06/26 05:22:20;;;;;;;10.15;3.35;;;;;;;;;;4975795;28;98552;-77
2023/06/26 05:24:47;;;;;;;8.50;3.10;;;;;;;;;;4985243;28;99094;-76
2023/06/26 05:27:21;;;;;;;8.80;3.40;;;;;;;;;;4987588;28;97784;-77
2023/06/26 05:29:48;;;;;;;7.50;2.75;;;;;;;;;;4989194;28;102882;-76
2023/06/26 05:32:18;;;;;;;9.38;2.85;;;;;;;;;;4967228;28;98724;-77
2023/06/26 05:34:49;;;;;;;10.23;3.03;;;;;;;;;;4981451;28;100118;-76
2023/06/26 05:37:21;;;;;;;8.77;3.03;;;;;;;;;;4986309;28;99451;-76
2023/06/26 05:39:48;;;;;;;8.40;3.00;;;;;;;;;;4973856;28;98686;-76
2023/06/26 05:42:15;;;;;;;8.38;2.70;;;;;;;;;;4982776;28;98833;-77
2023/06/26 05:44:41;;;;;;;8.65;2.95;;;;;;;;;;4984987;28;101409;-79
2023/06/26 05:47:08;;;;;;;8.52;2.90;;;;;;;;;;4986647;28;98614;-77
2023/06/26 05:49:35;;;;;;;8.20;2.80;;;;;;;;;;4984069;28;102229;-76
2023/06/26 05:52:02;;;;;;;9.35;3.00;;;;;;;;;;4986459;28;99238;-76
2023/06/26 05:54:29;;;;;;;7.43;2.90;;;;;;;;;;4988915;28;99763;-76
2023/06/26 05:56:59;;;;;;;7.38;2.42;;;;;;;;;;4980179;28;99538;-77
2023/06/26 05:59:26;;;;;;;6.90;2.53;;;;;;;;;;4985090;28;99584;-78
2023/06/26 06:01:53;;;;;;;7.80;2.80;;;;;;;;;;4985104;28;103189;-77
2023/06/26 06:04:20;;;;;;;;;;;;;;;;;;4986309;28;99269;-77
2023/06/26 06:06:46;;;;;;;9.52;2.50;;;;;;;;;;4986381;28;98632;-77
2023/06/26 06:09:13;;;;;;;8.00;2.40;;;;;;;;;;4982319;28;98997;-77
2023/06/26 06:11:40;;;;;;;7.72;2.58;;;;;;;;;;4988587;28;99238;-76
2023/06/26 06:14:06;;;;;;;8.07;2.55;;;;;;;;;;4985583;28;98815;-76
2023/06/26 06:16:33;;;;;;;7.07;2.45;;;;;;;;;;4983489;28;98570;-78
2023/06/26 06:19:00;;;;;;;6.07;2.30;;;;;;;;;;4973299;28;98956;-78
2023/06/26 06:21:26;;;;;;;5.93;2.45;;;;;;;;;;4964861;28;98837;-77
2023/06/26 06:23:53;;;;;;;7.28;2.40;;;;;;;;;;4984732;28;100318;-77
2023/06/26 06:26:19;;;;;;;7.18;2.55;;;;;;;;;;4986611;28;98892;-77
2023/06/26 06:28:46;;;;;;;6.60;2.20;;;;;;;;;;4984490;28;98754;-77
2023/06/26 06:31:13;;;;;;;8.75;2.60;;;;;;;;;;4984182;28;99068;-76
2023/06/26 06:33:39;;;;;;;7.45;2.90;;;;;;;;;;4984276;28;98690;-77
2023/06/26 06:36:06;;;;;;;5.90;2.22;;;;;;;;;;4964094;28;99289;-77
2023/06/26 06:38:32;;;;;;;6.10;2.05;;;;;;;;;;4981086;28;99222;-77
2023/06/26 06:40:59;;;;;;;7.00;2.60;;;;;;;;;;4965975;28;100068;-77
2023/06/26 06:43:26;;;;;;;;;;;;;;;;;;4977845;28;102329;-77
2023/06/26 06:45:53;;;;;;;5.28;2.00;;;;;;;;;;4986809;28;98667;-76
2023/06/26 06:48:19;;;;;;;6.50;2.28;;;;;;;;;;4978740;28;101837;-77
2023/06/26 06:50:46;;;;;;;7.68;2.40;;;;;;;;;;4981853;28;99167;-76
2023/06/26 06:53:12;;;;;;;7.68;2.08;;;;;;;;;;4973994;28;98896;-77
2023/06/26 06:55:39;;;;;;;5.32;2.20;;;;;;;;;;4975609;28;99142;-75
2023/06/26 06:58:16;;;;;;;6.65;2.25;;;;;;;;;;5016410;27;86976;-76
2023/06/26 07:00:43;;;;;;;6.28;2.30;;;;;;;;;;4998656;28;87002;-76
2023/06/26 07:03:10;;;;;;;6.03;2.20;;;;;;;;;;5008557;27;86902;-76
2023/06/26 07:05:37;;;;;;;5.32;2.22;;;;;;;;;;4999499;28;87014;-75
2023/06/26 07:08:04;;;;;;;6.13;2.40;;;;;;;;;;5006018;27;88879;-77
2023/06/26 07:10:31;;;;;;;7.70;2.45;;;;;;;;;;5000999;28;86904;-76
2023/06/26 07:12:58;;;;;;;10.95;2.90;;;;;;;;;;5004161;27;88720;-76
2023/06/26 07:15:24;;;;;;;7.03;2.15;;;;;;;;;;5008383;27;88708;-76
2023/06/26 07:17:53;;;;;;;9.05;2.97;;;;;;;;;;5011404;28;86885;-76
2023/06/26 07:20:19;;;;;;;7.65;2.28;;;;;;;;;;5008625;27;86614;-76
2023/06/26 07:22:46;;;;;;;6.28;2.15;;;;;;;;;;5006965;28;87421;-76
2023/06/26 07:25:13;;;;;;;;;;;;;;;;;;5008867;27;86997;-76
2023/06/26 07:27:41;;;;;;;5.82;2.25;;;;;;;;;;5008714;27;99651;-76
2023/06/26 07:30:10;;;;;;;6.32;2.10;;;;;;;;;;5008560;27;88027;-76
2023/06/26 07:32:37;;;;;;;8.38;2.45;;;;;;;;;;5007471;27;87176;-76
2023/06/26 07:35:04;;;;;;;6.82;2.40;;;;;;;;;;4999292;28;87792;-77
2023/06/26 07:37:31;;;;;;;7.60;2.30;;;;;;;;;;5007383;27;87965;-76
2023/06/26 07:39:57;;;;;;;6.00;2.30;;;;;;;;;;5010392;28;87348;-77
2023/06/26 07:42:24;;;;;;;6.20;2.30;;;;;;;;;;4992011;28;86934;-77
2023/06/26 07:44:51;;;;;;;7.50;2.33;;;;;;;;;;4997424;28;88052;-77
2023/06/26 07:47:17;;;;;;;7.32;2.70;;;;;;;;;;4993554;28;87564;-76
2023/06/26 07:49:44;;;;;;;7.25;2.47;;;;;;;;;;4991539;28;88175;-78
2023/06/26 07:52:11;;;;;;;7.30;2.35;;;;;;;;;;5009405;28;88331;-77
2023/06/26 07:54:37;;;;;;;5.88;2.22;;;;;;;;;;5007871;28;87779;-78
2023/06/26 07:57:08;;;;;;;5.97;2.53;;;;;;;;;;5004856;28;89772;-77
2023/06/26 07:59:35;;;;;;;9.35;2.70;;;;;;;;;;5007474;27;87919;-76
2023/06/26 08:02:02;;;;;;;4.97;2.25;;;;;;;;;;5009825;27;87952;-76
2023/06/26 08:04:31;;;;;;;;;;;;;;;;;;5006565;28;88376;-76
2023/06/26 08:06:59;;;;;;;6.10;2.40;;;;;;;;;;5008533;27;87797;-77
2023/06/26 08:09:27;;;;;;;7.35;2.50;;;;;;;;;;4985849;28;87069;-77
2023/06/26 08:11:53;;;;;;;7.57;2.70;;;;;;;;;;4968304;28;87217;-77
2023/06/26 08:14:20;;;;;;;8.20;2.88;;;;;;;;;;4974752;28;87947;-77
2023/06/26 08:16:47;;;;;;;7.70;2.42;;;;;;;;;;4974346;28;87116;-75
2023/06/26 08:19:14;;;;;;;7.03;2.30;;;;;;;;;;4974936;28;87663;-76
2023/06/26 08:21:41;;;;;;;;;;;;;;;;;;4974296;28;87611;-75
2023/06/26 08:24:07;;;;;;;8.35;2.78;;;;;;;;;;4978307;28;102326;-75
2023/06/26 08:26:35;;;;;;;7.88;2.20;;;;;;;;;;4974890;28;86652;-76
2023/06/26 08:29:07;;;;;;;8.40;2.50;;;;;;;;;;4982933;28;87217;-75
2023/06/26 08:31:38;;;;;;;8.35;2.60;;;;;;;;;;4984235;28;89823;-76
2023/06/26 08:34:05;;;;;;;8.10;2.85;;;;;;;;;;4986888;28;88681;-75
2023/06/26 08:36:31;;;;;;;7.10;2.33;;;;;;;;;;4974123;28;88138;-77
2023/06/26 08:38:58;;;;;;;5.95;2.28;;;;;;;;;;4987028;28;88068;-75
2023/06/26 08:41:24;;;;;;;6.10;1.90;;;;;;;;;;4992052;28;87439;-76
2023/06/26 08:43:52;;;;;;;6.60;1.85;;;;;;;;;;4967069;28;88514;-77
2023/06/26 08:46:19;;;;;;;8.07;1.80;;;;;;;;;;4997333;28;88417;-76
2023/06/26 08:48:50;;;;;;;6.13;1.77;;;;;;;;;;4993779;28;86776;-76
2023/06/26 08:51:17;;;;;;;7.80;2.22;;;;;;;;;;4978325;28;88553;-75
2023/06/26 08:53:58;;;;;;;6.78;2.00;;;;;;;;;;4993144;28;92809;-75
2023/06/26 08:56:28;;;;;;;6.22;2.00;;;;;;;;;;4971024;28;87150;-75
2023/06/26 08:58:55;;;;;;;5.30;1.70;;;;;;;;;;4973462;28;88312;-76
2023/06/26 09:01:23;;;;;;;6.03;1.80;;;;;;;;;;4976802;27;88440;-77
2023/06/26 09:03:50;;;;;;;5.97;1.65;;;;;;;;;;4990417;28;87103;-74
2023/06/26 09:06:18;;;;;;;7.05;2.00;;;;;;;;;;4982991;28;88615;-75
2023/06/26 09:08:45;;;;;;;5.28;1.70;;;;;;;;;;4975594;28;87035;-75
2023/06/26 09:11:11;;;;;;;7.38;1.92;;;;;;;;;;4958302;28;87095;-75
2023/06/26 09:13:39;;;;;;;6.13;1.80;;;;;;;;;;4973290;28;87604;-74
2023/06/26 09:16:08;;;;;;;7.15;1.85;;;;;;;;;;4965073;28;87938;-75
2023/06/26 09:18:35;;;;;;;4.35;1.65;;;;;;;;;;4991663;28;89173;-74
2023/06/26 09:21:08;;;;;;;5.72;1.60;;;;;;;;;;4992846;27;88066;-75
2023/06/26 09:23:35;;;;;;;6.25;1.40;;;;;;;;;;4989961;28;87897;-76
2023/06/26 09:26:02;;;;;;;;;;;;;;;;;;4972536;28;87467;-77
2023/06/26 09:28:29;;;;;;;6.05;1.67;;;;;;;;;;4997246;28;103374;-76
2023/06/26 09:30:59;;;;;;;5.45;1.77;;;;;;;;;;4991884;28;86996;-75
2023/06/26 09:33:26;;;;;;;11.90;1.80;;;;;;;;;;4990334;28;87281;-83
2023/06/26 09:35:53;;;;;;;6.45;1.60;;;;;;;;;;4991173;28;89377;-76
2023/06/26 09:38:21;;;;;;;5.43;1.50;;;;;;;;;;4996319;28;87227;-75
2023/06/26 09:40:47;;;;;;;5.32;2.00;;;;;;;;;;4998631;28;88462;-75
2023/06/26 09:43:14;;;;;;;5.03;1.52;;;;;;;;;;4991277;28;87967;-75
2023/06/26 09:45:41;;;;;;;5.55;1.60;;;;;;;;;;4990600;27;88147;-75
2023/06/26 09:48:08;;;;;;;4.47;1.40;;;;;;;;;;4981407;28;87891;-76
2023/06/26 09:50:36;;;;;;;5.03;1.60;;;;;;;;;;4961192;28;88688;-77
2023/06/26 09:53:10;;;;;;;5.38;1.85;;;;;;;;;;4970949;28;91273;-77
2023/06/26 09:55:37;;;;;;;6.90;1.90;;;;;;;;;;4970551;28;87135;-76
2023/06/26 09:58:04;;;;;;;;;;;;;;;;;;4964978;28;87569;-76
2023/06/26 10:00:31;;;;;;;6.60;1.80;;;;;;;;;;4973011;28;87893;-77
2023/06/26 10:03:01;;;;;;;4.93;1.70;;;;;;;;;;4987713;28;89798;-77
2023/06/26 10:05:28;;;;;;;5.28;1.70;;;;;;;;;;4974757;28;87212;-75
2023/06/26 10:07:55;;;;;;;6.80;1.75;;;;;;;;;;4972451;28;87853;-77
2023/06/26 10:10:22;;;;;;;5.80;1.80;;;;;;;;;;4972892;28;93634;-77
2023/06/26 10:12:51;;;;;;;6.13;1.88;;;;;;;;;;4974015;28;90126;-77
2023/06/26 10:15:18;;;;;;;7.43;1.92;;;;;;;;;;4971042;28;87166;-74
2023/06/26 10:17:46;;;;;;;7.72;1.98;;;;;;;;;;4972605;28;87211;-77
2023/06/26 10:20:15;;;;;;;5.50;1.70;;;;;;;;;;5005098;28;89110;-78
2023/06/26 10:22:46;;;;;;;5.43;1.70;;;;;;;;;;4975969;28;93228;-78
2023/06/26 10:25:15;;;;;;;6.47;1.73;;;;;;;;;;4983540;28;87161;-78
2023/06/26 10:27:44;;;;;;;4.90;1.80;;;;;;;;;;4984006;28;87307;-78
2023/06/26 10:30:12;;;;;;;6.43;1.70;;;;;;;;;;4992620;28;86870;-78
2023/06/26 10:32:40;;;;;;;4.63;1.42;;;;;;;;;;4994678;28;87035;-77
2023/06/26 10:35:06;;;;;;;5.60;1.77;;;;;;;;;;4978198;28;87277;-78
2023/06/26 10:37:46;;;;;;;6.05;1.88;;;;;;;;;;4960109;28;87061;-78
2023/06/26 10:40:20;;;;;;;4.85;1.80;;;;;;;;;;4963218;28;88497;-78
2023/06/26 10:42:47;;;;;;;6.03;1.67;;;;;;;;;;4970618;28;88657;-78
2023/06/26 10:45:14;;;;;;;4.57;1.80;;;;;;;;;;4988742;28;88320;-77
2023/06/26 10:47:42;;;;;;;3.50;1.40;;;;;;;;;;4991265;27;87936;-78
2023/06/26 10:50:32;;;;;;;5.10;1.60;;;;;;;;;;4992383;28;87036;-77
2023/06/26 10:53:08;;;;;;;5.18;1.70;;;;;;;;;;4979382;28;87064;-78
2023/06/26 10:55:35;;;;;;;6.03;1.55;;;;;;;;;;4990765;28;86856;-78
2023/06/26 10:58:02;;;;;;;4.70;1.58;;;;;;;;;;4992584;27;87906;-78
2023/06/26 11:00:29;;;;;;;5.95;1.65;;;;;;;;;;4992163;27;87637;-77
2023/06/26 11:02:55;;;;;;;5.38;1.55;;;;;;;;;;4991951;27;87400;-76
2023/06/26 11:05:29;;;;;;;4.60;1.65;;;;;;;;;;4990237;28;88923;-76
2023/06/26 11:08:05;;;;;;;6.70;1.67;;;;;;;;;;4991588;28;87740;-78
2023/06/26 11:10:51;;;;;;;5.57;1.50;;;;;;;;;;4989726;28;88186;-76
2023/06/26 11:13:20;;;;;;;4.43;1.52;;;;;;;;;;4989140;27;88533;-77
2023/06/26 11:15:48;;;;;;;4.75;1.90;;;;;;;;;;4990150;27;88780;-77
2023/06/26 11:18:14;;;;;;;5.63;1.88;;;;;;;;;;4986607;28;90707;-77
2023/06/26 11:20:41;;;;;;;8.30;1.70;;;;;;;;;;4969412;28;88928;-77
2023/06/26 11:23:08;;;;;;;3.97;1.30;;;;;;;;;;4989796;28;88271;-76
2023/06/26 11:25:36;;;;;;;6.05;1.60;;;;;;;;;;4989994;28;88628;-76
2023/06/26 11:28:03;;;;;;;4.47;1.70;;;;;;;;;;4991544;28;89312;-78
2023/06/26 11:30:31;;;;;;;4.45;1.30;;;;;;;;;;4991822;27;88360;-77
2023/06/26 11:33:04;;;;;;;4.07;1.35;;;;;;;;;;4974631;28;89839;-77
2023/06/26 11:35:31;;;;;;;5.15;1.70;;;;;;;;;;4979705;27;88481;-83
2023/06/26 11:38:00;;;;;;;8.13;1.60;;;;;;;;;;4988331;28;88804;-77
2023/06/26 11:40:31;;;;;;;4.50;1.27;;;;;;;;;;4973276;28;90391;-76
2023/06/26 11:42:59;;;;;;;5.95;1.40;;;;;;;;;;4958380;28;89281;-78
2023/06/26 11:45:30;;;;;;;5.03;1.50;;;;;;;;;;4959683;28;89169;-77
2023/06/26 11:47:56;;;;;;;5.05;1.40;;;;;;;;;;4970670;28;88620;-77
2023/06/26 11:50:27;;;;;;;4.85;1.40;;;;;;;;;;4974884;28;88435;-78
2023/06/26 11:52:55;;;;;;;4.72;1.40;;;;;;;;;;4969201;28;88085;-78
2023/06/26 11:55:25;;;;;;;5.30;1.50;;;;;;;;;;5005049;28;88271;-77
2023/06/26 11:57:56;;;;;;;4.38;1.48;;;;;;;;;;4980342;28;91680;-79
2023/06/26 12:00:23;;;;;;;5.05;1.35;;;;;;;;;;4964962;28;89605;-79
2023/06/26 12:02:51;;;;;;;3.15;1.25;;;;;;;;;;4977414;28;88037;-78
2023/06/26 12:05:18;;;;;;;5.95;1.42;;;;;;;;;;4970917;28;88993;-77
2023/06/26 12:07:49;;;;;;;5.03;1.38;;;;;;;;;;4998737;28;88102;-78
2023/06/26 12:10:16;;;;;;;8.88;1.67;;;;;;;;;;4973798;28;90663;-78
2023/06/26 12:12:43;;;;;;;4.47;1.30;;;;;;;;;;4973521;28;88806;-78
2023/06/26 12:15:13;;;;;;;2.92;1.33;;;;;;;;;;4964919;28;89648;-78
2023/06/26 12:17:39;;;;;;;3.78;1.30;;;;;;;;;;4971772;28;88313;-78
2023/06/26 12:20:17;;;;;;;3.63;1.10;;;;;;;;;;4973829;28;88575;-78
2023/06/26 12:22:46;;;;;;;3.58;1.15;;;;;;;;;;4974075;28;88648;-77
2023/06/26 12:25:12;;;;;;;4.32;1.25;;;;;;;;;;4976762;28;88019;-77
2023/06/26 12:27:39;;;;;;;3.05;1.10;;;;;;;;;;4973114;28;88151;-77
2023/06/26 12:30:06;;;;;;;3.70;1.23;;;;;;;;;;4966257;28;89140;-77
2023/06/26 12:32:34;;;;;;;3.65;1.20;;;;;;;;;;4993354;27;88058;-78
2023/06/26 12:35:01;;;;;;;4.65;1.35;;;;;;;;;;4993471;27;87993;-80
2023/06/26 12:37:29;;;;;;;2.88;1.10;;;;;;;;;;4994082;28;89392;-78
2023/06/26 12:39:57;;;;;;;2.90;1.00;;;;;;;;;;4999835;28;89291;-77
2023/06/26 12:42:24;;;;;;;3.22;1.25;;;;;;;;;;4991111;28;88045;-77
2023/06/26 12:44:51;;;;;;;3.90;1.00;;;;;;;;;;4983927;28;90368;-77
2023/06/26 12:47:23;;;;;;;4.32;1.20;;;;;;;;;;4983736;28;88144;-76
2023/06/26 12:49:50;;;;;;;2.88;1.30;;;;;;;;;;4973234;28;88204;-76
2023/06/26 12:52:18;;;;;;;2.00;1.10;;;;;;;;;;4966862;28;88036;-77
2023/06/26 12:54:46;;;;;;;4.45;1.30;;;;;;;;;;4953385;28;89141;-77
2023/06/26 12:57:16;;;;;;;3.65;1.00;;;;;;;;;;4956420;28;89977;-80
2023/06/26 12:59:43;;;;;;;3.17;1.20;;;;;;;;;;4978420;28;92943;-77
2023/06/26 13:02:11;;;;;;;4.90;1.20;;;;;;;;;;4992100;28;88030;-78
2023/06/26 13:04:41;;;;;;;4.95;1.40;;;;;;;;;;4973010;28;90401;-76
2023/06/26 13:07:08;;;;;;;3.40;1.30;;;;;;;;;;4980717;28;88865;-77
2023/06/26 13:09:36;;;;;;;4.35;1.20;;;;;;;;;;4994720;27;88139;-77
2023/06/26 13:12:03;;;;;;;3.95;1.30;;;;;;;;;;4999492;28;87757;-77
2023/06/26 13:14:30;;;;;;;4.07;1.20;;;;;;;;;;5000631;28;88083;-77
2023/06/26 13:16:57;;;;;;;3.00;1.30;;;;;;;;;;4995799;27;88528;-77
2023/06/26 13:19:24;;;;;;;2.97;1.10;;;;;;;;;;4996993;27;89418;-82
2023/06/26 13:21:50;;;;;;;3.95;1.20;;;;;;;;;;4996670;28;87989;-77
2023/06/26 13:24:17;;;;;;;3.60;1.33;;;;;;;;;;4997807;28;88525;-77
2023/06/26 13:26:43;;;;;;;4.22;1.25;;;;;;;;;;4994776;28;88699;-77
2023/06/26 13:29:10;;;;;;;4.38;1.15;;;;;;;;;;4998733;28;88385;-77
2023/06/26 13:31:38;;;;;;;4.85;1.30;;;;;;;;;;4995560;27;88650;-76
2023/06/26 13:34:05;;;;;;;4.38;1.40;;;;;;;;;;4996854;27;88090;-76
2023/06/26 13:36:33;;;;;;;4.50;1.20;;;;;;;;;;5000917;28;88415;-78
2023/06/26 13:39:00;;;;;;;4.60;1.10;;;;;;;;;;4993669;28;89329;-76
2023/06/26 13:41:28;;;;;;;4.15;1.10;;;;;;;;;;4996278;28;89287;-77
2023/06/26 13:43:55;;;;;;;5.35;1.17;;;;;;;;;;4980099;28;89097;-79
2023/06/26 13:46:29;;;;;;;4.07;1.15;;;;;;;;;;4970001;28;87947;-79
2023/06/26 13:48:55;;;;;;;5.63;1.20;;;;;;;;;;4973844;28;88064;-77
2023/06/26 13:51:22;;;;;;;4.30;1.30;;;;;;;;;;4974435;28;88385;-78
2023/06/26 13:53:48;;;;;;;4.90;1.27;;;;;;;;;;4999415;28;89508;-78
2023/06/26 13:56:17;;;;;;;6.43;1.40;;;;;;;;;;4962542;28;88381;-76
2023/06/26 13:58:44;;;;;;;4.15;1.30;;;;;;;;;;4971055;28;88635;-78
2023/06/26 14:01:11;;;;;;;8.35;1.70;;;;;;;;;;5003553;28;87622;-77
2023/06/26 14:03:37;;;;;;;6.07;2.10;;;;;;;;;;4970711;28;94116;-77
2023/06/26 14:06:04;;;;;;;4.85;1.38;;;;;;;;;;4969832;28;88811;-77
2023/06/26 14:08:30;;;;;;;4.50;1.30;;;;;;;;;;4965301;28;89139;-78
2023/06/26 14:10:59;;;;;;;4.60;1.20;;;;;;;;;;4970575;28;88700;-78
2023/06/26 14:13:26;;;;;;;3.38;1.15;;;;;;;;;;4972927;28;88497;-79
2023/06/26 14:15:52;;;;;;;4.07;1.25;;;;;;;;;;4970558;28;89740;-78
2023/06/26 14:18:20;;;;;;;4.32;1.27;;;;;;;;;;4972209;28;88401;-78
2023/06/26 14:20:47;;;;;;;4.45;1.30;;;;;;;;;;4971409;28;90619;-78
2023/06/26 14:23:14;;;;;;;;;;;;;;;;;;4971492;28;88948;-77
2023/06/26 14:25:41;;;;;;;5.80;1.20;;;;;;;;;;4989918;28;107561;-77
2023/06/26 14:28:07;;;;;;;3.65;1.20;;;;;;;;;;4955762;28;95184;-78
2023/06/26 14:30:34;;;;;;;3.90;1.10;;;;;;;;;;4970476;28;88394;-77
2023/06/26 14:33:01;;;;;;;2.35;1.23;;;;;;;;;;4967462;28;91962;-78
2023/06/26 14:35:27;;;;;;;4.00;1.20;;;;;;;;;;4976184;28;88289;-77
2023/06/26 14:37:54;;;;;;;2.80;1.38;;;;;;;;;;4996482;28;88765;-77
2023/06/26 14:40:20;;;;;;;5.22;1.35;;;;;;;;;;4979288;28;88130;-78
2023/06/26 14:42:47;;;;;;;;;;;;;;;;;;4988882;28;88259;-77
2023/06/26 14:45:14;;;;;;;3.58;1.33;;;;;;;;;;4987615;27;115741;-77